Latest Weather Observations for Little Bay

IDN60801

Issued at 1:05 am EST Saturday 19 April 2014 (issued every 30 minutes, with the page automatically refreshed every 10 minutes)

About weather observations | Map of weather stations | Latest weather observations for NSW | Other Formats
Station Details ID: 066051 Name: LITTLE BAY (THE COAST GOLF CLUB) Lat: -33.98 Lon: 151.25 Height: 22.0 m
Data from the previous 72 hours. | See also: Recent months for locations in New South Wales
Date/Time
EST
Temp
°C
App
Temp
°C
Dew
Point
Rel
Hum
%
Delta-T
°C
Wind Press
QNH
hPa
Press
MSL
hPa
Rain
since 9 am
mm
Dir
 
Spd
km/h
Gust
km/h
Spd
kts
Gust
kts
19/01:00am - - - - - WSW 9 15 5 8 - - -
19/12:30am - - - - - WNW 9 13 5 7 - - -
19/12:00am - - - - - W 11 15 6 8 - - -
 
Date/Time
EST
Temp
°C
App
Temp
°C
Dew
Point
Rel
Hum
%
Delta-T
°C
Wind Press
QNH
hPa
Press
MSL
hPa
Rain
since 9 am
mm
Dir
 
Spd
km/h
Gust
km/h
Spd
kts
Gust
kts
18/11:30pm - - - - - W 11 17 6 9 - - -
18/11:00pm - - - - - WNW 11 17 6 9 - - -
18/10:30pm - - - - - WNW 13 20 7 11 - - -
18/10:00pm - - - - - WNW 15 20 8 11 - - -
18/09:30pm - - - - - WNW 15 24 8 13 - - -
18/09:00pm - - - - - WNW 13 20 7 11 - - -
18/08:30pm - - - - - WNW 9 13 5 7 - - -
18/08:00pm - - - - - W 7 9 4 5 - - -
18/07:30pm - - - - - WSW 6 7 3 4 - - -
18/07:00pm - - - - - CALM 0 4 0 2 - - -
18/06:30pm - - - - - WSW 9 17 5 9 - - -
18/06:00pm - - - - - SW 6 7 3 4 - - -
18/05:30pm - - - - - SSW 4 6 2 3 - - -
18/05:00pm - - - - - SSE 7 9 4 5 - - -
18/04:30pm - - - - - SE 9 13 5 7 - - -
18/04:00pm - - - - - SSE 13 17 7 9 - - -
18/03:30pm - - - - - SSE 15 19 8 10 - - -
18/03:00pm - - - - - S 13 20 7 11 - - -
18/02:30pm - - - - - WNW 9 15 5 8 - - -
18/02:00pm - - - - - W 9 17 5 9 - - -
18/01:30pm - - - - - W 11 17 6 9 - - -
18/01:00pm - - - - - WNW 11 19 6 10 - - -
18/12:30pm - - - - - W 13 20 7 11 - - -
18/12:00pm - - - - - W 15 20 8 11 - - -
18/11:30am - - - - - W 15 20 8 11 - - -
18/11:00am - - - - - W 17 26 9 14 - - -
18/10:30am - - - - - W 19 26 10 14 - - -
18/10:00am - - - - - W 17 26 9 14 - - -
18/09:30am - - - - - W 19 26 10 14 - - -
18/09:00am - - - - - W 15 24 8 13 - - -
18/08:30am - - - - - W 15 22 8 12 - - -
18/08:00am - - - - - W 17 22 9 12 - - -
18/07:30am - - - - - WNW 13 19 7 10 - - -
18/07:00am - - - - - WNW 13 19 7 10 - - -
18/06:30am - - - - - WNW 13 17 7 9 - - -
18/06:00am - - - - - WNW 13 15 7 8 - - -
18/05:30am - - - - - WNW 15 19 8 10 - - -
18/05:00am - - - - - WNW 13 17 7 9 - - -
18/04:30am - - - - - WNW 11 15 6 8 - - -
18/04:00am - - - - - WNW 11 15 6 8 - - -
18/03:30am - - - - - WNW 11 15 6 8 - - -
18/03:00am - - - - - W 13 17 7 9 - - -
18/02:30am - - - - - WNW 13 17 7 9 - - -
18/02:00am - - - - - W 15 19 8 10 - - -
18/01:30am - - - - - W 15 19 8 10 - - -
18/01:00am - - - - - W 17 20 9 11 - - -
18/12:30am - - - - - W 15 19 8 10 - - -
18/12:00am - - - - - WNW 13 19 7 10 - - -
 
Date/Time
EST
Temp
°C
App
Temp
°C
Dew
Point
Rel
Hum
%
Delta-T
°C
Wind Press
QNH
hPa
Press
MSL
hPa
Rain
since 9 am
mm
Dir
 
Spd
km/h
Gust
km/h
Spd
kts
Gust
kts
17/11:30pm - - - - - WNW 11 17 6 9 - - -
17/11:00pm - - - - - WNW 11 15 6 8 - - -
17/10:30pm - - - - - WNW 11 17 6 9 - - -
17/10:00pm - - - - - W 9 15 5 8 - - -
17/09:30pm - - - - - W 9 13 5 7 - - -
17/09:00pm - - - - - S 22 32 12 17 - - -
17/08:30pm - - - - - S 20 30 11 16 - - -
17/08:00pm - - - - - S 20 30 11 16 - - -
17/07:30pm - - - - - S 24 32 13 17 - - -
17/07:00pm - - - - - S 24 33 13 18 - - -
17/06:30pm - - - - - S 26 37 14 20 - - -
17/06:00pm - - - - - S 26 37 14 20 - - -
17/05:30pm - - - - - S 26 37 14 20 - - -
17/05:00pm - - - - - S 28 37 15 20 - - -
17/04:30pm - - - - - S 26 37 14 20 - - -
17/04:00pm - - - - - S 30 41 16 22 - - -
17/03:30pm - - - - - S 30 39 16 21 - - -
17/03:00pm - - - - - S 28 37 15 20 - - -
17/02:30pm - - - - - S 28 35 15 19 - - -
17/02:00pm - - - - - S 22 32 12 17 - - -
17/01:30pm - - - - - S 22 30 12 16 - - -
17/01:00pm - - - - - S 22 30 12 16 - - -
17/12:30pm - - - - - S 28 35 15 19 - - -
17/12:00pm - - - - - SSW 26 37 14 20 - - -
17/11:30am - - - - - SSW 22 32 12 17 - - -
17/11:00am - - - - - S 24 37 13 20 - - -
17/10:30am - - - - - SSW 24 33 13 18 - - -
17/10:00am - - - - - S 22 35 12 19 - - -
17/09:30am - - - - - SSW 20 30 11 16 - - -
17/09:00am - - - - - W 11 15 6 8 - - -
17/08:30am - - - - - W 11 17 6 9 - - -
17/08:00am - - - - - W 15 19 8 10 - - -
17/07:30am - - - - - WNW 13 17 7 9 - - -
17/07:00am - - - - - WNW 13 17 7 9 - - -
17/06:30am - - - - - WNW 13 17 7 9 - - -
17/06:00am - - - - - W 15 19 8 10 - - -
17/05:30am - - - - - WNW 15 20 8 11 - - -
17/05:00am - - - - - W 15 19 8 10 - - -
17/04:30am - - - - - W 9 15 5 8 - - -
17/04:00am - - - - - WNW 13 19 7 10 - - -
17/03:30am - - - - - WNW 15 20 8 11 - - -
17/03:00am - - - - - WNW 17 22 9 12 - - -
17/02:30am - - - - - WNW 13 17 7 9 - - -
17/02:00am - - - - - WNW 13 17 7 9 - - -
17/01:30am - - - - - WNW 11 15 6 8 - - -
17/01:00am - - - - - WNW 9 13 5 7 - - -
17/12:30am - - - - - W 11 15 6 8 - - -
17/12:00am - - - - - WNW 11 15 6 8 - - -
 
Date/Time
EST
Temp
°C
App
Temp
°C
Dew
Point
Rel
Hum
%
Delta-T
°C
Wind Press
QNH
hPa
Press
MSL
hPa
Rain
since 9 am
mm
Dir
 
Spd
km/h
Gust
km/h
Spd
kts
Gust
kts
16/11:30pm - - - - - W 7 13 4 7 - - -
16/11:00pm - - - - - WSW 11 19 6 10 - - -
16/10:30pm - - - - - WSW 11 15 6 8 - - -
16/10:00pm - - - - - WSW 11 15 6 8 - - -
16/09:30pm - - - - - WSW 11 15 6 8 - - -
16/09:00pm - - - - - SW 13 19 7 10 - - -
16/08:30pm - - - - - S 20 28 11 15 - - -
16/08:00pm - - - - - S 24 33 13 18 - - -
16/07:30pm - - - - - S 24 35 13 19 - - -
16/07:00pm - - - - - S 24 37 13 20 - - -
16/06:30pm - - - - - S 28 37 15 20 - - -
16/06:00pm - - - - - S 28 35 15 19 - - -
16/05:30pm - - - - - S 28 37 15 20 - - -
16/05:00pm - - - - - S 26 35 14 19 - - -
16/04:30pm - - - - - S 26 35 14 19 - - -
16/04:00pm - - - - - S 26 37 14 20 - - -
16/03:30pm - - - - - S 30 43 16 23 - - -
16/03:00pm - - - - - S 28 39 15 21 - - -
16/02:30pm - - - - - S 30 41 16 22 - - -
16/02:00pm - - - - - SSW 28 41 15 22 - - -
16/01:30pm - - - - - S 28 39 15 21 - - -
16/01:00pm - - - - - S 24 35 13 19 - - -
16/12:30pm - - - - - SSW 28 39 15 21 - - -
16/12:00pm - - - - - SSW 28 37 15 20 - - -
16/11:30am - - - - - SSW 30 41 16 22 - - -
16/11:00am - - - - - SSW 30 43 16 23 - - -
16/10:30am - - - - - SSW 28 39 15 21 - - -
16/10:00am - - - - - SSW 24 35 13 19 - - -
16/09:30am - - - - - SSW 24 35 13 19 - - -
16/09:00am - - - - - SSW 24 33 13 18 - - -
16/08:30am - - - - - SSW 22 33 12 18 - - -
16/08:00am - - - - - SSW 22 32 12 17 - - -
16/07:30am - - - - - SW 20 32 11 17 - - -
16/07:00am - - - - - SW 19 28 10 15 - - -
16/06:30am - - - - - SSW 24 37 13 20 - - -
16/06:00am - - - - - SSW 26 35 14 19 - - -
16/05:30am - - - - - SSW 24 35 13 19 - - -
16/05:00am - - - - - SSW 26 35 14 19 - - -
16/04:30am - - - - - SSW 26 37 14 20 - - -
16/04:00am - - - - - SSW 26 39 14 21 - - -
16/03:30am - - - - - SSW 26 35 14 19 - - -
16/03:00am - - - - - SSW 30 44 16 24 - - -
16/02:30am - - - - - SSW 30 41 16 22 - - -
16/02:00am - - - - - SSW 28 37 15 20 - - -
16/01:30am - - - - - SSW 30 41 16 22 - - -

Other Formats:

Comma delimited format used in spreadsheet applications
http://www.bom.gov.au/fwo/IDN60801/IDN60801.94780.axf

JavaScript Object Notation format (JSON) in row-major order
http://www.bom.gov.au/fwo/IDN60801/IDN60801.94780.json